createdAt,value
2019-04-10T00:00:44.184Z,101249.34
2019-04-10T00:03:24.161Z,101248.33
2019-04-10T00:05:41.118Z,101247.85
2019-04-10T00:08:08.472Z,101247.66
2019-04-10T00:10:36.196Z,101245.80
2019-04-10T00:13:04.439Z,101253.41
2019-04-10T00:15:32.657Z,101252.79
2019-04-10T00:17:59.935Z,101257.00
2019-04-10T00:20:27.018Z,101257.70
2019-04-10T00:22:54.830Z,101260.95
2019-04-10T00:25:21.992Z,101262.53
2019-04-10T00:27:49.080Z,101256.62
2019-04-10T00:30:16.645Z,101261.23
2019-04-10T00:32:43.961Z,101263.23
2019-04-10T00:35:11.125Z,101267.99
2019-04-10T00:37:38.245Z,101264.76
2019-04-10T00:40:06.815Z,101266.28
2019-04-10T00:42:34.880Z,101263.94
2019-04-10T00:45:02.224Z,101266.83
2019-04-10T00:47:29.293Z,101260.70
2019-04-10T00:49:56.367Z,101255.75
2019-04-10T00:52:24.092Z,101266.07
2019-04-10T00:54:53.224Z,101262.42
2019-04-10T00:57:21.294Z,101266.20
2019-04-10T00:59:48.518Z,101269.09
2019-04-10T01:02:16.466Z,101270.81
2019-04-10T01:04:44.639Z,101268.41
2019-04-10T01:07:36.593Z,101266.89
2019-04-10T01:09:59.353Z,101266.75
2019-04-10T01:12:26.490Z,101270.05
2019-04-10T01:14:54.042Z,101268.25
2019-04-10T01:17:22.186Z,101270.39
2019-04-10T01:19:50.279Z,101265.98
2019-04-10T01:22:17.452Z,101271.89
2019-04-10T01:24:45.988Z,101272.23
2019-04-10T01:27:13.926Z,101270.75
2019-04-10T01:29:41.893Z,101272.81
2019-04-10T01:32:09.770Z,101270.61
2019-04-10T01:34:37.863Z,101273.56
2019-04-10T01:37:05.101Z,101269.50
2019-04-10T01:39:32.730Z,101269.42
2019-04-10T01:42:00.597Z,101268.38
2019-04-10T01:44:28.903Z,101268.72
2019-04-10T01:46:56.972Z,101266.45
2019-04-10T01:49:24.179Z,101266.78
2019-04-10T01:51:51.872Z,101263.69
2019-04-10T01:54:19.382Z,101263.55
2019-04-10T01:56:46.531Z,101270.34
2019-04-10T01:59:14.704Z,101265.60
2019-04-10T02:01:49.001Z,101272.95
2019-04-10T02:04:16.351Z,101270.20
2019-04-10T02:06:43.506Z,101270.87
2019-04-10T02:09:10.981Z,101269.42
2019-04-10T02:11:38.190Z,101270.58
2019-04-10T02:14:05.732Z,101270.77
2019-04-10T02:16:33.058Z,101268.90
2019-04-10T02:19:00.140Z,101268.27
2019-04-10T02:21:27.534Z,101277.41
2019-04-10T02:23:54.713Z,101273.75
2019-04-10T02:26:21.781Z,101277.59
2019-04-10T02:28:48.879Z,101287.37
2019-04-10T02:31:16.068Z,101280.69
2019-04-10T02:33:43.151Z,101289.34
2019-04-10T02:36:10.867Z,101291.80
2019-04-10T02:38:53.233Z,101284.78
2019-04-10T02:41:08.367Z,101287.25
2019-04-10T02:43:36.563Z,101283.84
2019-04-10T02:46:06.560Z,101293.31
2019-04-10T02:48:34.044Z,101292.34
2019-04-10T02:51:01.962Z,101288.75
2019-04-10T02:53:29.628Z,101290.87
2019-04-10T02:55:58.228Z,101293.41
2019-04-10T02:58:26.528Z,101298.32
2019-04-10T03:00:54.854Z,101292.53
2019-04-10T03:03:22.608Z,101294.58
2019-04-10T03:05:54.306Z,101292.62
2019-04-10T03:08:38.282Z,101302.50
2019-04-10T03:10:56.792Z,101303.24
2019-04-10T03:13:19.828Z,101303.91
2019-04-10T03:15:47.649Z,101299.83
2019-04-10T03:18:14.900Z,101304.48
2019-04-10T03:20:42.743Z,101304.81
2019-04-10T03:23:11.443Z,101305.14
2019-04-10T03:26:09.729Z,101305.80
2019-04-10T03:28:36.912Z,101315.73
2019-04-10T03:31:10.641Z,101317.17
2019-04-10T03:33:55.266Z,101311.80
2019-04-10T03:36:21.253Z,101311.72
2019-04-10T03:38:57.755Z,101312.37
2019-04-10T03:41:17.777Z,101308.22
2019-04-10T03:43:45.821Z,101309.84
2019-04-10T03:46:13.091Z,101314.89
2019-04-10T03:48:41.034Z,101321.01
2019-04-10T03:51:08.281Z,101319.13
2019-04-10T03:53:35.392Z,101328.58
2019-04-10T03:56:02.574Z,101327.60
2019-04-10T03:58:29.615Z,101331.84
2019-04-10T04:00:56.664Z,101329.47
2019-04-10T04:03:24.595Z,101335.42
2019-04-10T04:05:53.128Z,101338.34
2019-04-10T04:08:21.451Z,101335.58
2019-04-10T04:10:49.360Z,101338.83
2019-04-10T04:13:17.471Z,101344.45
2019-04-10T04:15:44.668Z,101346.31
2019-04-10T04:18:12.916Z,101348.51
2019-04-10T04:20:41.203Z,101346.14
2019-04-10T04:23:09.598Z,101343.37
2019-04-10T04:25:36.835Z,101342.22
2019-04-10T04:28:04.624Z,101343.67
2019-04-10T04:30:32.101Z,101349.92
2019-04-10T04:32:59.246Z,101345.77
2019-04-10T04:35:26.302Z,101356.82
2019-04-10T04:37:54.882Z,101360.64
2019-04-10T04:40:23.781Z,101358.99
2019-04-10T04:43:00.175Z,101372.73
2019-04-10T04:45:27.811Z,101370.77
2019-04-10T04:47:55.602Z,101368.48
2019-04-10T04:50:22.868Z,101373.52
2019-04-10T04:52:49.934Z,101370.73
2019-04-10T04:55:17.652Z,101369.98
2019-04-10T04:57:45.087Z,101381.02
2019-04-10T05:00:13.182Z,101379.63
2019-04-10T05:02:40.431Z,101381.74
2019-04-10T05:05:08.665Z,101383.36
2019-04-10T05:07:35.888Z,101394.58
2019-04-10T05:10:04.754Z,101397.09
2019-04-10T05:12:31.915Z,101399.30
2019-04-10T05:14:59.044Z,101402.53
2019-04-10T05:17:28.780Z,101412.94
2019-04-10T05:19:56.130Z,101406.92
2019-04-10T05:22:24.379Z,101410.83
2019-04-10T05:24:52.316Z,101415.54
2019-04-10T05:27:19.484Z,101420.34
2019-04-10T05:29:47.145Z,101423.04
2019-04-10T05:32:14.502Z,101426.13
2019-04-10T05:34:43.204Z,101431.52
2019-04-10T05:37:11.419Z,101428.52
2019-04-10T05:39:43.341Z,101426.50
2019-04-10T05:42:08.476Z,101430.98
2019-04-10T05:44:36.045Z,101440.37
2019-04-10T05:47:03.399Z,101444.14
2019-04-10T05:49:31.060Z,101446.74
2019-04-10T05:51:58.213Z,101458.64
2019-04-10T05:54:25.281Z,101456.71
2019-04-10T05:56:52.622Z,101459.81
2019-04-10T05:59:19.806Z,101463.67
2019-04-10T06:01:46.870Z,101460.26
2019-04-10T06:04:14.072Z,101464.75
2019-04-10T06:06:41.359Z,101469.02
2019-04-10T06:09:09.149Z,101468.47
2019-04-10T06:11:37.348Z,101463.84
2019-04-10T06:14:05.274Z,101469.23
2019-04-10T06:16:32.521Z,101467.61
2019-04-10T06:18:59.836Z,101469.75
2019-04-10T06:21:27.292Z,101472.22
2019-04-10T06:23:56.683Z,101472.08
2019-04-10T06:26:23.937Z,101478.13
2019-04-10T06:28:51.029Z,101476.11
2019-04-10T06:31:18.684Z,101473.92
2019-04-10T06:33:46.440Z,101475.58
2019-04-10T06:36:13.605Z,101468.50
2019-04-10T06:38:41.212Z,101478.87
2019-04-10T06:41:08.415Z,101479.38
2019-04-10T06:43:35.529Z,101476.45
2019-04-10T06:46:02.558Z,101482.44
2019-04-10T06:48:29.690Z,101479.11
2019-04-10T06:50:56.764Z,101479.52
2019-04-10T06:53:24.755Z,101480.34
2019-04-10T06:55:52.386Z,101477.98
2019-04-10T06:58:20.110Z,101481.74
2019-04-10T07:00:52.181Z,101471.30
2019-04-10T07:03:16.932Z,101478.32
2019-04-10T07:05:59.688Z,101475.22
2019-04-10T07:08:17.295Z,101474.08
2019-04-10T07:10:52.110Z,101477.66
2019-04-10T07:13:13.077Z,101477.50
2019-04-10T07:15:43.628Z,101472.84
2019-04-10T07:18:14.441Z,101475.48
2019-04-10T07:20:39.959Z,101482.00
2019-04-10T07:23:07.144Z,101476.84
2019-04-10T07:25:35.360Z,101480.43
2019-04-10T07:28:05.036Z,101488.08
2019-04-10T07:30:31.877Z,101481.63
2019-04-10T07:32:59.329Z,101487.98
2019-04-10T07:35:30.765Z,101490.16
2019-04-10T07:37:57.791Z,101490.50
2019-04-10T07:40:24.980Z,101495.14
2019-04-10T07:42:52.547Z,101502.06
2019-04-10T07:45:19.722Z,101498.59
2019-04-10T07:47:46.850Z,101505.61
2019-04-10T07:50:14.369Z,101502.81
2019-04-10T07:52:41.533Z,101503.60
2019-04-10T07:55:08.745Z,101513.28
2019-04-10T07:57:36.387Z,101512.80
2019-04-10T08:00:04.076Z,101512.16
2019-04-10T08:02:31.821Z,101512.38
2019-04-10T08:04:59.812Z,101519.97
2019-04-10T08:07:32.751Z,101520.97
2019-04-10T08:09:56.471Z,101524.33
2019-04-10T08:12:23.540Z,101521.03
2019-04-10T08:14:50.687Z,101524.84
2019-04-10T08:17:17.771Z,101519.81
2019-04-10T08:19:45.332Z,101522.31
2019-04-10T08:22:12.864Z,101524.80
2019-04-10T08:24:40.535Z,101523.36
2019-04-10T08:27:07.752Z,101517.51
2019-04-10T08:29:34.816Z,101522.41
2019-04-10T08:32:01.910Z,101522.31
2019-04-10T08:34:31.446Z,101520.93
2019-04-10T08:36:59.684Z,101523.83
2019-04-10T08:39:35.973Z,101527.83
2019-04-10T08:41:55.896Z,101521.96
2019-04-10T08:44:24.217Z,101527.95
2019-04-10T08:46:52.541Z,101529.19
2019-04-10T08:49:21.231Z,101525.61
2019-04-10T08:51:48.542Z,101528.70
2019-04-10T08:54:16.201Z,101535.74
2019-04-10T08:56:43.393Z,101535.00
2019-04-10T08:59:10.476Z,101535.42
2019-04-10T09:01:39.700Z,101531.95
2019-04-10T09:04:07.766Z,101524.28
2019-04-10T09:06:35.599Z,101529.19
2019-04-10T09:09:05.464Z,101547.12
2019-04-10T09:11:33.943Z,101535.80
2019-04-10T09:14:01.156Z,101538.33
2019-04-10T09:16:28.847Z,101533.98
2019-04-10T09:18:56.066Z,101538.59
2019-04-10T09:21:23.693Z,101538.66
2019-04-10T09:23:53.338Z,101546.94
2019-04-10T09:26:20.340Z,101545.28
2019-04-10T09:28:48.594Z,101539.26
2019-04-10T09:31:16.115Z,101544.83
2019-04-10T09:33:43.303Z,101543.70
2019-04-10T09:36:11.191Z,101542.73
2019-04-10T09:38:38.936Z,101541.96
2019-04-10T09:41:06.197Z,101535.94
2019-04-10T09:43:33.876Z,101537.98
2019-04-10T09:46:02.181Z,101534.10
2019-04-10T09:48:29.631Z,101538.64
2019-04-10T09:50:56.790Z,101538.10
2019-04-10T09:53:24.562Z,101540.79
2019-04-10T09:55:52.454Z,101534.82
2019-04-10T09:58:19.896Z,101541.74
2019-04-10T10:00:48.199Z,101535.30
2019-04-10T10:03:15.526Z,101534.45
2019-04-10T10:05:42.580Z,101536.23
2019-04-10T10:08:10.577Z,101520.69
2019-04-10T10:10:38.838Z,101528.33
2019-04-10T10:13:07.491Z,101528.80
2019-04-10T10:15:35.586Z,101538.95
2019-04-10T10:18:05.474Z,101527.29
2019-04-10T10:20:32.616Z,101526.48
2019-04-10T10:22:59.713Z,101524.11
2019-04-10T10:25:27.036Z,101526.11
2019-04-10T10:27:54.456Z,101529.44
2019-04-10T10:30:21.720Z,101529.27
2019-04-10T10:32:48.974Z,101525.48
2019-04-10T10:35:16.764Z,101525.80
2019-04-10T10:37:43.999Z,101524.95
2019-04-10T10:40:11.819Z,101531.22
2019-04-10T10:42:41.511Z,101516.95
2019-04-10T10:45:10.467Z,101516.30
2019-04-10T10:47:38.368Z,101515.86
2019-04-10T10:50:06.658Z,101507.27
2019-04-10T10:52:33.873Z,101501.20
2019-04-10T10:55:01.123Z,101503.72
2019-04-10T10:57:28.214Z,101509.22
2019-04-10T10:59:55.285Z,101513.64
2019-04-10T11:02:22.373Z,101506.77
2019-04-10T11:04:49.625Z,101506.88
2019-04-10T11:07:16.823Z,101507.58
2019-04-10T11:09:44.447Z,101507.09
2019-04-10T11:12:12.234Z,101516.02
2019-04-10T11:14:39.618Z,101507.42
2019-04-10T11:17:06.859Z,101507.36
2019-04-10T11:19:35.499Z,101510.33
2019-04-10T11:22:05.017Z,101512.16
2019-04-10T11:24:33.254Z,101510.20
2019-04-10T11:27:00.496Z,101505.53
2019-04-10T11:29:28.751Z,101516.09
2019-04-10T11:31:56.141Z,101521.54
2019-04-10T11:34:24.231Z,101513.83
2019-04-10T11:37:12.931Z,101522.32
2019-04-10T11:39:25.543Z,101519.53
2019-04-10T11:41:50.435Z,101519.30
2019-04-10T11:44:20.282Z,101510.75
2019-04-10T11:46:46.696Z,101515.02
2019-04-10T11:49:15.492Z,101517.12
2019-04-10T11:51:45.325Z,101517.55
2019-04-10T11:54:14.623Z,101517.27
2019-04-10T11:56:42.661Z,101515.50
2019-04-10T11:59:12.370Z,101524.00
2019-04-10T12:01:39.364Z,101509.70
2019-04-10T12:04:10.094Z,101514.20
2019-04-10T12:06:37.812Z,101510.07
2019-04-10T12:09:45.215Z,101517.91
2019-04-10T12:11:42.594Z,101517.05
2019-04-10T12:14:09.677Z,101517.87
2019-04-10T12:16:36.914Z,101516.95
2019-04-10T12:19:04.772Z,101523.92
2019-04-10T12:21:31.887Z,101524.77
2019-04-10T12:23:59.057Z,101519.98
2019-04-10T12:26:26.257Z,101519.01
2019-04-10T12:28:53.974Z,101514.14
2019-04-10T12:31:21.178Z,101507.52
2019-04-10T12:33:48.264Z,101503.12
2019-04-10T12:36:15.350Z,101513.41
2019-04-10T12:38:43.494Z,101527.06
2019-04-10T12:41:12.577Z,101513.42
2019-04-10T12:43:39.703Z,101516.67
2019-04-10T12:46:06.848Z,101509.62
2019-04-10T12:48:34.736Z,101514.59
2019-04-10T12:51:01.996Z,101504.23
2019-04-10T12:53:29.612Z,101517.52
2019-04-10T12:55:57.784Z,101509.29
2019-04-10T12:58:24.955Z,101517.92
2019-04-10T13:00:52.245Z,101517.87
2019-04-10T13:03:19.486Z,101514.16
2019-04-10T13:05:46.554Z,101511.27
2019-04-10T13:08:21.296Z,101507.55
2019-04-10T13:10:43.464Z,101506.66
2019-04-10T13:13:11.550Z,101506.96
2019-04-10T13:15:39.333Z,101511.98
2019-04-10T13:18:06.550Z,101513.96
2019-04-10T13:20:33.740Z,101511.47
2019-04-10T13:23:00.848Z,101510.77
2019-04-10T13:25:28.191Z,101520.55
2019-04-10T13:27:55.399Z,101512.63
2019-04-10T13:30:22.853Z,101517.56
2019-04-10T13:32:50.127Z,101513.77
2019-04-10T13:35:17.949Z,101517.73
2019-04-10T13:37:46.833Z,101510.63
2019-04-10T13:40:15.207Z,101515.69
2019-04-10T13:42:42.355Z,101511.80
2019-04-10T13:45:09.546Z,101513.27
2019-04-10T13:47:38.585Z,101513.98
2019-04-10T13:50:06.738Z,101524.14
2019-04-10T13:52:36.308Z,101522.50
2019-04-10T13:55:05.205Z,101523.38
2019-04-10T13:57:32.826Z,101508.73
2019-04-10T13:59:59.971Z,101525.97
2019-04-10T14:02:37.536Z,101513.53
2019-04-10T14:05:07.415Z,101511.51
2019-04-10T14:07:35.976Z,101518.53
2019-04-10T14:10:06.988Z,101515.07
2019-04-10T14:12:37.070Z,101522.39
2019-04-10T14:15:04.974Z,101528.91
2019-04-10T14:17:33.336Z,101511.58
2019-04-10T14:20:00.435Z,101523.14
2019-04-10T14:22:27.532Z,101521.52
2019-04-10T14:24:55.501Z,101525.77
2019-04-10T14:27:24.687Z,101533.92
2019-04-10T14:29:51.758Z,101532.33
2019-04-10T14:32:33.414Z,101524.50
2019-04-10T14:35:01.051Z,101532.45
2019-04-10T14:37:29.210Z,101531.56
2019-04-10T14:39:57.782Z,101547.66
2019-04-10T14:42:25.215Z,101541.61
2019-04-10T14:44:53.025Z,101537.97
2019-04-10T14:47:20.400Z,101543.88
2019-04-10T14:49:53.615Z,101546.17
2019-04-10T14:52:21.034Z,101547.95
2019-04-10T14:54:48.308Z,101541.23
2019-04-10T14:57:16.930Z,101549.88
2019-04-10T14:59:44.276Z,101556.39
2019-04-10T15:02:12.677Z,101548.09
2019-04-10T15:04:39.866Z,101557.56
2019-04-10T15:07:08.025Z,101559.97
2019-04-10T15:09:35.499Z,101551.29
2019-04-10T15:12:02.868Z,101555.40
2019-04-10T15:14:32.539Z,101555.55
2019-04-10T15:17:04.035Z,101560.50
2019-04-10T15:19:28.962Z,101567.35
2019-04-10T15:21:56.328Z,101569.48
2019-04-10T15:24:23.790Z,101568.78
2019-04-10T15:26:51.314Z,101563.51
2019-04-10T15:29:18.498Z,101573.59
2019-04-10T15:31:45.996Z,101564.59
2019-04-10T15:34:14.026Z,101566.77
2019-04-10T15:36:43.493Z,101569.75
2019-04-10T15:39:10.625Z,101578.89
2019-04-10T15:41:37.791Z,101575.47
2019-04-10T15:44:05.773Z,101578.02
2019-04-10T15:46:33.195Z,101586.92
2019-04-10T15:49:00.558Z,101585.85
2019-04-10T15:51:27.972Z,101589.05
2019-04-10T15:53:55.247Z,101585.57
2019-04-10T15:56:22.311Z,101592.77
2019-04-10T15:58:49.944Z,101587.21
2019-04-10T16:01:19.421Z,101588.44
2019-04-10T16:03:47.215Z,101592.20
2019-04-10T16:06:52.120Z,101588.61
2019-04-10T16:09:21.075Z,101595.05
2019-04-10T16:12:14.505Z,101596.77
2019-04-10T16:14:41.691Z,101595.77
2019-04-10T16:17:31.379Z,101596.06
2019-04-10T16:20:18.127Z,101597.70
2019-04-10T16:23:10.734Z,101607.95
2019-04-10T16:25:40.409Z,101612.60
2019-04-10T16:28:08.298Z,101605.23
2019-04-10T16:30:36.949Z,101612.34
2019-04-10T16:33:04.963Z,101607.53
2019-04-10T16:35:35.159Z,101606.59
2019-04-10T16:38:02.320Z,101616.22
2019-04-10T16:40:29.919Z,101617.89
2019-04-10T16:42:57.379Z,101621.27
2019-04-10T16:45:24.609Z,101628.50
2019-04-10T16:47:52.597Z,101620.69
2019-04-10T16:50:19.714Z,101617.93
2019-04-10T16:52:47.361Z,101619.59
2019-04-10T16:55:15.475Z,101620.63
2019-04-10T16:57:49.465Z,101628.51
2019-04-10T17:00:18.248Z,101634.22
2019-04-10T17:02:46.503Z,101636.05
2019-04-10T17:05:16.510Z,101636.05
2019-04-10T17:07:43.732Z,101640.30
2019-04-10T17:10:18.095Z,101638.62
2019-04-10T17:12:40.643Z,101642.49
2019-04-10T17:15:10.154Z,101635.16
2019-04-10T17:17:38.619Z,101637.09
2019-04-10T17:20:07.018Z,101642.38
2019-04-10T17:22:42.072Z,101649.72
2019-04-10T17:25:04.149Z,101657.48
2019-04-10T17:27:31.998Z,101656.56
2019-04-10T17:29:59.180Z,101662.22
2019-04-10T17:32:26.999Z,101661.59
2019-04-10T17:34:54.853Z,101663.02
2019-04-10T17:37:23.334Z,101671.75
2019-04-10T17:39:51.465Z,101669.11
2019-04-10T17:42:19.936Z,101678.58
2019-04-10T17:44:47.821Z,101685.98
2019-04-10T17:47:15.092Z,101683.97
2019-04-10T17:49:43.413Z,101685.84
2019-04-10T17:52:10.571Z,101691.17
2019-04-10T17:54:38.690Z,101694.02
2019-04-10T17:57:12.845Z,101703.95
2019-04-10T17:59:40.678Z,101696.16
2019-04-10T18:02:11.713Z,101704.04
2019-04-10T18:04:40.023Z,101715.38
2019-04-10T18:07:07.952Z,101715.08
2019-04-10T18:09:36.875Z,101712.08
2019-04-10T18:12:05.929Z,101716.95
2019-04-10T18:14:36.103Z,101719.20
2019-04-10T18:17:02.626Z,101718.95
2019-04-10T18:19:30.904Z,101724.23
2019-04-10T18:21:58.373Z,101729.64
2019-04-10T18:24:26.218Z,101733.73
2019-04-10T18:26:54.161Z,101734.30
2019-04-10T18:29:23.257Z,101738.73
2019-04-10T18:31:50.981Z,101744.38
2019-04-10T18:34:19.417Z,101744.45
2019-04-10T18:36:48.666Z,101754.20
2019-04-10T18:39:18.310Z,101763.45
2019-04-10T18:41:46.602Z,101762.55
2019-04-10T18:44:13.690Z,101763.44
2019-04-10T18:46:41.687Z,101773.02
2019-04-10T18:49:09.347Z,101780.26
2019-04-10T18:51:36.659Z,101775.28
2019-04-10T18:54:03.933Z,101779.34
2019-04-10T18:56:31.344Z,101779.84
2019-04-10T18:59:05.008Z,101785.53
2019-04-10T19:01:40.487Z,101792.06
2019-04-10T19:04:30.814Z,101798.05
2019-04-10T19:06:59.040Z,101804.23
2019-04-10T19:09:30.441Z,101806.47
2019-04-10T19:12:02.607Z,101804.26
2019-04-10T19:14:30.348Z,101807.06
2019-04-10T19:16:58.268Z,101808.22
2019-04-10T19:19:26.059Z,101816.34
2019-04-10T19:21:55.897Z,101818.20
2019-04-10T19:24:25.910Z,101822.98
2019-04-10T19:26:53.798Z,101825.28
2019-04-10T19:29:21.447Z,101826.02
2019-04-10T19:31:52.043Z,101828.41
2019-04-10T19:34:19.232Z,101833.33
2019-04-10T19:36:48.248Z,101837.91
2019-04-10T19:39:16.072Z,101840.86
2019-04-10T19:41:44.845Z,101838.58
2019-04-10T19:44:31.035Z,101841.36
2019-04-10T19:46:58.723Z,101842.02
2019-04-10T19:49:25.985Z,101846.68
2019-04-10T19:51:53.054Z,101849.95
2019-04-10T19:54:20.211Z,101848.00
2019-04-10T19:56:47.303Z,101855.93
2019-04-10T19:59:22.811Z,101862.72
2019-04-10T20:01:50.755Z,101861.73
2019-04-10T20:04:18.829Z,101860.58
2019-04-10T20:06:48.885Z,101861.81
2019-04-10T20:09:17.809Z,101864.09
2019-04-10T20:11:50.075Z,101869.89
2019-04-10T20:14:34.705Z,101868.33
2019-04-10T20:17:02.026Z,101870.61
2019-04-10T20:19:29.150Z,101875.41
2019-04-10T20:21:56.721Z,101876.88
2019-04-10T20:24:24.943Z,101881.20
2019-04-10T20:26:52.253Z,101877.92
2019-04-10T20:29:19.592Z,101883.06
2019-04-10T20:31:50.151Z,101885.51
2019-04-10T20:34:19.052Z,101890.77
2019-04-10T20:36:47.052Z,101889.52
2019-04-10T20:39:27.424Z,101889.48
2019-04-10T20:41:58.348Z,101891.83
2019-04-10T20:44:24.919Z,101899.32
2019-04-10T20:46:52.787Z,101902.08
2019-04-10T20:49:20.443Z,101904.51
2019-04-10T20:51:50.450Z,101908.16
2019-04-10T20:54:17.897Z,101912.62
2019-04-10T20:56:45.028Z,101913.66
2019-04-10T20:59:12.152Z,101916.98
2019-04-10T21:01:39.368Z,101916.62
2019-04-10T21:04:07.319Z,101921.05
2019-04-10T21:06:34.461Z,101927.61
2019-04-10T21:09:21.387Z,101925.63
2019-04-10T21:11:59.832Z,101930.97
2019-04-10T21:14:17.610Z,101936.01
2019-04-10T21:16:45.248Z,101940.55
2019-04-10T21:19:14.123Z,101944.59
2019-04-10T21:21:43.345Z,101948.81
2019-04-10T21:24:27.504Z,101952.13
2019-04-10T21:27:32.606Z,101949.84
2019-04-10T21:30:31.775Z,101951.66
2019-04-10T21:34:01.454Z,101963.03
2019-04-10T21:36:28.923Z,101961.34
2019-04-10T21:39:12.361Z,101960.77
2019-04-10T21:41:41.056Z,101966.06
2019-04-10T21:44:13.457Z,101967.19
2019-04-10T21:46:41.004Z,101971.83
2019-04-10T21:49:08.288Z,101977.45
2019-04-10T21:51:35.406Z,101979.27
2019-04-10T21:54:02.504Z,101980.67
2019-04-10T21:56:30.925Z,101981.56
2019-04-10T21:58:59.132Z,101983.08
2019-04-10T22:01:26.620Z,101981.27
2019-04-10T22:03:54.232Z,101985.88
2019-04-10T22:06:41.042Z,101976.66
2019-04-10T22:09:37.457Z,101980.17
2019-04-10T22:12:23.650Z,101979.17
2019-04-10T22:14:43.880Z,101976.46
2019-04-10T22:17:11.329Z,101978.97
2019-04-10T22:19:39.504Z,101983.08
2019-04-10T22:22:06.953Z,101986.59
2019-04-10T22:24:34.131Z,101987.98
2019-04-10T22:27:01.531Z,101990.69
2019-04-10T22:29:28.859Z,101988.58
2019-04-10T22:31:55.922Z,101988.27
2019-04-10T22:34:34.183Z,101996.39
2019-04-10T22:37:02.204Z,101993.77
2019-04-10T22:39:31.686Z,101994.67
2019-04-10T22:41:59.034Z,101991.25
2019-04-10T22:44:34.697Z,101992.64
2019-04-10T22:46:55.624Z,101993.34
2019-04-10T22:49:22.918Z,101996.93
2019-04-10T22:51:50.000Z,102000.63
2019-04-10T22:54:17.923Z,102000.82
2019-04-10T22:56:45.633Z,102000.51
2019-04-10T22:59:13.582Z,102009.70
2019-04-10T23:01:40.799Z,102001.64
2019-04-10T23:04:08.085Z,102008.45
2019-04-10T23:06:35.411Z,102011.05
2019-04-10T23:09:04.172Z,102009.83
2019-04-10T23:12:09.857Z,102012.22
2019-04-10T23:14:38.571Z,102013.30
2019-04-10T23:17:05.815Z,102012.98
2019-04-10T23:19:32.924Z,102012.77
2019-04-10T23:22:01.243Z,102016.57
2019-04-10T23:24:29.694Z,102016.57
2019-04-10T23:26:57.570Z,102010.75
2019-04-10T23:29:24.839Z,102018.95
2019-04-10T23:31:52.157Z,102014.16
2019-04-10T23:34:19.243Z,102013.54
2019-04-10T23:36:46.564Z,102021.53
2019-04-10T23:39:14.277Z,102028.72
2019-04-10T23:41:42.069Z,102027.20
2019-04-10T23:44:09.268Z,102021.67
2019-04-10T23:46:36.841Z,102025.36
2019-04-10T23:49:04.045Z,102025.54
2019-04-10T23:51:31.549Z,102030.52
2019-04-10T23:53:58.612Z,102029.29
2019-04-10T23:59:59.245Z,102035.17
